PWSweather.com
Personal Weather Stations
Station Observations
LW1DRJ
MorenoAR 17441

MorenoAR 17441

Lat: -34.6340099, Lon: -58.791382

Elevation: 19

Station Type: Fine Offset

http://www.lw1drj.com.ar/clima

Latest ConditionsUpdated 3:00:00 PM GMT-03:57 Tuesday, Sep 18, 2018
Currently Today's Max Today's Min Today's Average
Temperature 77.4°F25.2°C 78.8°F26.0°C 59.0°F15.0°C 65.0°F18.3°C
Dew Point 63.8°F17.7°C 71.3°F21.8°C 58.7°F14.8°C 62.3°F16.8°C
Winds 3.1 mph ENE5.0 kmh ENE 8.3 mph -13.4 kmh - - 2.1 mph 3.4 kmh
Wind Gusts 13.6 mph21.9 kmh 21.3 mph34.3 kmh - -
Humidity 63% 99% 61% 92%
Pressure 29.66 in1004.4 mb 29.89 in1012.2 mb 29.66 in1004.4 mb -
Hour Temp Dew Point Humidity Winds Wind Gusts Pressure Precip Precip Rate Daily Precip Total
03:00 PM 77.4°F25.2°C 63.8°F17.7°C 63% 3.1 mph ENE5.0 kmh ENE 13.6 mph21.9 kmh 29.66 in1004.4 mb 0.00 in0.0 mm 0.00 in0.0 mm 0.00 in0.0 mm
02:40 PM 77.5°F25.3°C 63.0°F17.2°C 61% 6.0 mph NE9.7 kmh NE 15.2 mph24.5 kmh 29.68 in1005.1 mb 0.00 in0.0 mm 0.00 in0.0 mm 0.00 in0.0 mm
02:20 PM 78.8°F26.0°C 64.7°F18.2°C 62% 4.5 mph NNE7.2 kmh NNE 11.4 mph18.3 kmh 29.70 in1005.8 mb 0.00 in0.0 mm 0.00 in0.0 mm 0.00 in0.0 mm
02:00 PM 76.5°F24.7°C 64.7°F18.2°C 67% 4.5 mph NNE7.2 kmh NNE 9.8 mph15.8 kmh 29.71 in1006.1 mb 0.00 in0.0 mm 0.00 in0.0 mm 0.00 in0.0 mm
01:40 PM 75.9°F24.4°C 64.6°F18.1°C 68% 3.1 mph NNE5.0 kmh NNE 14.5 mph23.3 kmh 29.72 in1006.4 mb 0.00 in0.0 mm 0.00 in0.0 mm 0.00 in0.0 mm
01:20 PM 76.8°F24.9°C 64.6°F18.1°C 66% 4.5 mph N7.2 kmh N 15.2 mph24.5 kmh 29.73 in1006.8 mb 0.00 in0.0 mm 0.00 in0.0 mm 0.00 in0.0 mm
01:00 PM 77.2°F25.1°C 65.4°F18.6°C 67% 8.3 mph NE13.4 kmh NE 14.5 mph23.3 kmh 29.73 in1006.8 mb 0.00 in0.0 mm 0.00 in0.0 mm 0.00 in0.0 mm
12:40 PM 76.6°F24.8°C 66.1°F18.9°C 70% 3.1 mph N5.0 kmh N 13.6 mph21.9 kmh 29.74 in1007.1 mb 0.00 in0.0 mm 0.00 in0.0 mm 0.00 in0.0 mm
12:20 PM 76.8°F24.9°C 65.5°F18.6°C 68% 6.0 mph N9.7 kmh N 14.5 mph23.3 kmh 29.74 in1007.1 mb 0.00 in0.0 mm 0.00 in0.0 mm 0.00 in0.0 mm
12:00 PM 76.8°F24.9°C 66.7°F19.3°C 71% 3.8 mph NNE6.1 kmh NNE 15.9 mph25.6 kmh 29.75 in1007.5 mb 0.00 in0.0 mm 0.00 in0.0 mm 0.00 in0.0 mm
11:40 AM 75.9°F24.4°C 67.0°F19.4°C 74% 6.9 mph NNE11.1 kmh NNE 18.3 mph29.5 kmh 29.76 in1007.8 mb 0.00 in0.0 mm 0.00 in0.0 mm 0.00 in0.0 mm
11:20 AM 76.3°F24.6°C 67.8°F19.9°C 75% 3.8 mph NNE6.1 kmh NNE 16.8 mph27.0 kmh 29.77 in1008.1 mb 0.00 in0.0 mm 0.00 in0.0 mm 0.00 in0.0 mm
11:00 AM 75.4°F24.1°C 68.4°F20.2°C 79% 5.4 mph NNE8.7 kmh NNE 21.3 mph34.3 kmh 29.78 in1008.5 mb 0.00 in0.0 mm 0.00 in0.0 mm 0.00 in0.0 mm
10:40 AM 76.8°F24.9°C 69.4°F20.8°C 78% 7.6 mph NE12.2 kmh NE 16.8 mph27.0 kmh 29.80 in1009.1 mb 0.00 in0.0 mm 0.00 in0.0 mm 0.00 in0.0 mm
10:20 AM 72.7°F22.6°C 67.2°F19.6°C 83% 7.6 mph N12.2 kmh N 18.3 mph29.5 kmh 29.81 in1009.5 mb 0.00 in0.0 mm 0.00 in0.0 mm 0.00 in0.0 mm
10:00 AM 72.3°F22.4°C 68.9°F20.5°C 89% 3.1 mph NNE5.0 kmh NNE 12.1 mph19.5 kmh 29.82 in1009.8 mb 0.00 in0.0 mm 0.00 in0.0 mm 0.00 in0.0 mm
09:40 AM 72.3°F22.4°C 70.2°F21.2°C 93% 5.4 mph N8.7 kmh N 15.9 mph25.6 kmh 29.83 in1010.2 mb 0.00 in0.0 mm 0.00 in0.0 mm 0.00 in0.0 mm
09:20 AM 71.6°F22.0°C 71.3°F21.8°C 99% 2.2 mph NNE3.5 kmh NNE 15.2 mph24.5 kmh 29.83 in1010.2 mb 0.00 in0.0 mm 0.00 in0.0 mm 0.00 in0.0 mm
09:00 AM 68.7°F20.4°C 68.4°F20.2°C 99% 3.1 mph NNE5.0 kmh NNE 11.4 mph18.3 kmh 29.84 in1010.5 mb 0.00 in0.0 mm 0.00 in0.0 mm 0.00 in0.0 mm
08:40 AM 66.9°F19.4°C 66.6°F19.2°C 99% 5.4 mph N8.7 kmh N 12.1 mph19.5 kmh 29.84 in1010.5 mb 0.00 in0.0 mm 0.00 in0.0 mm 0.00 in0.0 mm
08:20 AM 65.3°F18.5°C 65.0°F18.3°C 99% 4.5 mph NNE7.2 kmh NNE 9.8 mph15.8 kmh 29.84 in1010.5 mb 0.00 in0.0 mm 0.00 in0.0 mm 0.00 in0.0 mm
08:00 AM 63.3°F17.4°C 63.0°F17.2°C 99% 1.6 mph NNE2.6 kmh NNE 5.4 mph8.7 kmh 29.84 in1010.5 mb 0.00 in0.0 mm 0.00 in0.0 mm 0.00 in0.0 mm
07:40 AM 61.3°F16.3°C 61.1°F16.2°C 99% 2.2 mph NE3.5 kmh NE 6.0 mph9.7 kmh 29.84 in1010.5 mb 0.00 in0.0 mm 0.00 in0.0 mm 0.00 in0.0 mm
07:20 AM 59.7°F15.4°C 59.4°F15.2°C 99% Calm Calm 3.1 mph5.0 kmh 29.84 in1010.5 mb 0.00 in0.0 mm 0.00 in0.0 mm 0.00 in0.0 mm
06:58 AM 59.2°F15.1°C 58.9°F14.9°C 99% 1.6 mph E2.6 kmh E 4.5 mph7.2 kmh 29.84 in1010.5 mb 0.00 in0.0 mm 0.00 in0.0 mm 0.00 in0.0 mm
06:48 AM 59.4°F15.2°C 59.1°F15.1°C 99% Calm Calm 2.2 mph3.5 kmh 29.84 in1010.5 mb 0.00 in0.0 mm 0.00 in0.0 mm 0.00 in0.0 mm
06:38 AM 59.2°F15.1°C 58.9°F14.9°C 99% 0.7 mph NE1.1 kmh NE 1.6 mph2.6 kmh 29.83 in1010.2 mb 0.00 in0.0 mm 0.00 in0.0 mm 0.00 in0.0 mm
06:28 AM 59.4°F15.2°C 59.1°F15.1°C 99% Calm Calm 1.6 mph2.6 kmh 29.83 in1010.2 mb 0.00 in0.0 mm 0.00 in0.0 mm 0.00 in0.0 mm
06:18 AM 59.2°F15.1°C 58.9°F14.9°C 99% 0.7 mph NE1.1 kmh NE 1.6 mph2.6 kmh 29.83 in1010.2 mb 0.00 in0.0 mm 0.00 in0.0 mm 0.00 in0.0 mm
06:08 AM 59.7°F15.4°C 59.4°F15.2°C 99% 0.7 mph NE1.1 kmh NE 1.6 mph2.6 kmh 29.83 in1010.2 mb 0.00 in0.0 mm 0.00 in0.0 mm 0.00 in0.0 mm
05:58 AM 60.1°F15.6°C 59.8°F15.4°C 99% Calm Calm 1.6 mph2.6 kmh 29.82 in1009.8 mb 0.00 in0.0 mm 0.00 in0.0 mm 0.00 in0.0 mm
05:48 AM 59.2°F15.1°C 58.9°F14.9°C 99% 0.7 mph E1.1 kmh E 2.2 mph3.5 kmh 29.82 in1009.8 mb 0.00 in0.0 mm 0.00 in0.0 mm 0.00 in0.0 mm
05:38 AM 59.4°F15.2°C 59.1°F15.1°C 99% 0.7 mph SE1.1 kmh SE 2.2 mph3.5 kmh 29.81 in1009.5 mb 0.00 in0.0 mm 0.00 in0.0 mm 0.00 in0.0 mm
05:28 AM 59.9°F15.5°C 59.6°F15.3°C 99% 0.7 mph E1.1 kmh E 2.2 mph3.5 kmh 29.81 in1009.5 mb 0.00 in0.0 mm 0.00 in0.0 mm 0.00 in0.0 mm
05:18 AM 59.4°F15.2°C 59.1°F15.1°C 99% Calm Calm 0.7 mph1.1 kmh 29.81 in1009.5 mb 0.00 in0.0 mm 0.00 in0.0 mm 0.00 in0.0 mm
05:08 AM 59.2°F15.1°C 58.9°F14.9°C 99% Calm Calm 0.7 mph1.1 kmh 29.82 in1009.8 mb 0.00 in0.0 mm 0.00 in0.0 mm 0.00 in0.0 mm
04:58 AM 59.4°F15.2°C 59.1°F15.1°C 99% Calm Calm 0.7 mph1.1 kmh 29.82 in1009.8 mb 0.00 in0.0 mm 0.00 in0.0 mm 0.00 in0.0 mm
04:48 AM 59.5°F15.3°C 59.3°F15.2°C 99% Calm Calm 0.7 mph1.1 kmh 29.82 in1009.8 mb 0.00 in0.0 mm 0.00 in0.0 mm 0.00 in0.0 mm
04:38 AM 59.9°F15.5°C 59.6°F15.3°C 99% Calm Calm 0.7 mph1.1 kmh 29.82 in1009.8 mb 0.00 in0.0 mm 0.00 in0.0 mm 0.00 in0.0 mm
04:28 AM 59.7°F15.4°C 59.4°F15.2°C 99% Calm Calm -- 29.82 in1009.8 mb 0.00 in0.0 mm 0.00 in0.0 mm 0.00 in0.0 mm
04:18 AM 59.5°F15.3°C 59.3°F15.2°C 99% Calm Calm -- 29.82 in1009.8 mb 0.00 in0.0 mm 0.00 in0.0 mm 0.00 in0.0 mm
04:08 AM 59.4°F15.2°C 59.1°F15.1°C 99% Calm Calm -- 29.82 in1009.8 mb 0.00 in0.0 mm 0.00 in0.0 mm 0.00 in0.0 mm
03:58 AM 59.0°F15.0°C 58.7°F14.8°C 99% Calm Calm -- 29.82 in1009.8 mb 0.00 in0.0 mm 0.00 in0.0 mm 0.00 in0.0 mm
03:48 AM 59.9°F15.5°C 59.6°F15.3°C 99% Calm Calm 0.7 mph1.1 kmh 29.83 in1010.2 mb 0.00 in0.0 mm 0.00 in0.0 mm 0.00 in0.0 mm
03:38 AM 61.0°F16.1°C 60.7°F15.9°C 99% Calm Calm 1.6 mph2.6 kmh 29.83 in1010.2 mb 0.00 in0.0 mm 0.00 in0.0 mm 0.00 in0.0 mm
03:28 AM 60.3°F15.7°C 60.0°F15.6°C 99% Calm Calm 1.6 mph2.6 kmh 29.84 in1010.5 mb 0.00 in0.0 mm 0.00 in0.0 mm 0.00 in0.0 mm
03:18 AM 60.4°F15.8°C 60.2°F15.7°C 99% Calm Calm -- 29.84 in1010.5 mb 0.00 in0.0 mm 0.00 in0.0 mm 0.00 in0.0 mm
03:08 AM 60.6°F15.9°C 60.3°F15.7°C 99% Calm Calm 1.6 mph2.6 kmh 29.84 in1010.5 mb 0.00 in0.0 mm 0.00 in0.0 mm 0.00 in0.0 mm
02:58 AM 60.6°F15.9°C 60.3°F15.7°C 99% Calm Calm 1.6 mph2.6 kmh 29.85 in1010.8 mb 0.00 in0.0 mm 0.00 in0.0 mm 0.00 in0.0 mm
02:48 AM 60.6°F15.9°C 60.3°F15.7°C 99% Calm Calm -- 29.85 in1010.8 mb 0.00 in0.0 mm 0.00 in0.0 mm 0.00 in0.0 mm
02:38 AM 61.3°F16.3°C 61.1°F16.2°C 99% Calm Calm 2.2 mph3.5 kmh 29.85 in1010.8 mb 0.00 in0.0 mm 0.00 in0.0 mm 0.00 in0.0 mm
02:28 AM 61.5°F16.4°C 61.2°F16.2°C 99% 0.7 mph SE1.1 kmh SE 2.2 mph3.5 kmh 29.85 in1010.8 mb 0.00 in0.0 mm 0.00 in0.0 mm 0.00 in0.0 mm
02:18 AM 61.9°F16.6°C 61.6°F16.4°C 99% Calm Calm 2.2 mph3.5 kmh 29.86 in1011.2 mb 0.00 in0.0 mm 0.00 in0.0 mm 0.00 in0.0 mm
02:08 AM 62.1°F16.7°C 61.8°F16.6°C 99% 1.6 mph NE2.6 kmh NE 2.2 mph3.5 kmh 29.86 in1011.2 mb 0.00 in0.0 mm 0.00 in0.0 mm 0.00 in0.0 mm
01:58 AM 62.2°F16.8°C 62.0°F16.7°C 99% 0.7 mph NE1.1 kmh NE 3.8 mph6.1 kmh 29.86 in1011.2 mb 0.00 in0.0 mm 0.00 in0.0 mm 0.00 in0.0 mm
01:48 AM 62.4°F16.9°C 62.1°F16.7°C 99% 2.2 mph E3.5 kmh E 6.0 mph9.7 kmh 29.87 in1011.5 mb 0.00 in0.0 mm 0.00 in0.0 mm 0.00 in0.0 mm
01:38 AM 62.2°F16.8°C 62.0°F16.7°C 99% 3.1 mph E5.0 kmh E 6.0 mph9.7 kmh 29.87 in1011.5 mb 0.00 in0.0 mm 0.00 in0.0 mm 0.00 in0.0 mm
01:28 AM 61.7°F16.5°C 61.4°F16.3°C 99% 3.8 mph E6.1 kmh E 6.0 mph9.7 kmh 29.87 in1011.5 mb 0.00 in0.0 mm 0.00 in0.0 mm 0.00 in0.0 mm
01:18 AM 62.1°F16.7°C 61.8°F16.6°C 99% 2.2 mph NE3.5 kmh NE 6.0 mph9.7 kmh 29.88 in1011.9 mb 0.00 in0.0 mm 0.00 in0.0 mm 0.00 in0.0 mm
01:08 AM 62.2°F16.8°C 62.0°F16.7°C 99% 3.8 mph E6.1 kmh E 6.0 mph9.7 kmh 29.88 in1011.9 mb 0.00 in0.0 mm 0.00 in0.0 mm 0.00 in0.0 mm
12:58 AM 62.8°F17.1°C 62.5°F16.9°C 99% 3.1 mph E5.0 kmh E 9.2 mph14.8 kmh 29.88 in1011.9 mb 0.00 in0.0 mm 0.00 in0.0 mm 0.00 in0.0 mm
12:48 AM 61.7°F16.5°C 61.4°F16.3°C 99% 4.5 mph E7.2 kmh E 9.2 mph14.8 kmh 29.88 in1011.9 mb 0.00 in0.0 mm 0.00 in0.0 mm 0.00 in0.0 mm
12:38 AM 61.5°F16.4°C 61.2°F16.2°C 99% 2.2 mph E3.5 kmh E 5.4 mph8.7 kmh 29.88 in1011.9 mb 0.00 in0.0 mm 0.00 in0.0 mm 0.00 in0.0 mm
12:28 AM 61.2°F16.2°C 60.9°F16.1°C 99% 1.6 mph E2.6 kmh E 5.4 mph8.7 kmh 29.88 in1011.9 mb 0.00 in0.0 mm 0.00 in0.0 mm 0.00 in0.0 mm
12:18 AM 61.7°F16.5°C 61.4°F16.3°C 99% 0.7 mph E1.1 kmh E 2.2 mph3.5 kmh 29.89 in1012.2 mb 0.00 in0.0 mm 0.00 in0.0 mm 0.00 in0.0 mm
12:08 AM 61.3°F16.3°C 61.1°F16.2°C 99% Calm Calm 1.6 mph2.6 kmh 29.89 in1012.2 mb 0.00 in0.0 mm 0.00 in0.0 mm 0.00 in0.0 mm